sensor_id;sensor_type;location;lat;lon;timestamp;P1;durP1;ratioP1;P2;durP2;ratioP2
79670;SDS011;69137;50.878;8.050;2023-07-13T00:01:46;3.80;;;1.42;;
79670;SDS011;69137;50.878;8.050;2023-07-13T00:04:15;4.25;;;1.60;;
79670;SDS011;69137;50.878;8.050;2023-07-13T00:09:09;5.07;;;2.38;;
79670;SDS011;69137;50.878;8.050;2023-07-13T00:11:39;5.18;;;1.40;;
79670;SDS011;69137;50.878;8.050;2023-07-13T00:14:05;5.60;;;1.92;;
79670;SDS011;69137;50.878;8.050;2023-07-13T00:16:30;4.70;;;1.35;;
79670;SDS011;69137;50.878;8.050;2023-07-13T00:18:58;4.68;;;1.27;;
79670;SDS011;69137;50.878;8.050;2023-07-13T00:21:25;7.85;;;1.65;;
79670;SDS011;69137;50.878;8.050;2023-07-13T00:23:51;4.35;;;1.30;;
79670;SDS011;69137;50.878;8.050;2023-07-13T00:26:16;4.75;;;1.40;;
79670;SDS011;69137;50.878;8.050;2023-07-13T00:28:42;3.72;;;1.42;;
79670;SDS011;69137;50.878;8.050;2023-07-13T00:31:08;5.50;;;1.52;;
79670;SDS011;69137;50.878;8.050;2023-07-13T00:33:35;4.43;;;1.50;;
79670;SDS011;69137;50.878;8.050;2023-07-13T00:36:01;7.60;;;3.17;;
79670;SDS011;69137;50.878;8.050;2023-07-13T00:38:26;5.22;;;1.70;;
79670;SDS011;69137;50.878;8.050;2023-07-13T00:40:52;4.18;;;1.70;;
79670;SDS011;69137;50.878;8.050;2023-07-13T00:43:18;4.35;;;1.63;;
79670;SDS011;69137;50.878;8.050;2023-07-13T00:48:11;5.15;;;1.80;;
79670;SDS011;69137;50.878;8.050;2023-07-13T00:50:47;8.15;;;1.73;;
79670;SDS011;69137;50.878;8.050;2023-07-13T00:53:16;2.75;;;1.20;;
79670;SDS011;69137;50.878;8.050;2023-07-13T00:55:42;3.40;;;1.25;;
79670;SDS011;69137;50.878;8.050;2023-07-13T00:58:08;3.33;;;1.60;;
79670;SDS011;69137;50.878;8.050;2023-07-13T01:00:37;3.60;;;1.50;;
79670;SDS011;69137;50.878;8.050;2023-07-13T01:03:04;5.00;;;1.58;;
79670;SDS011;69137;50.878;8.050;2023-07-13T01:05:30;3.25;;;1.48;;
79670;SDS011;69137;50.878;8.050;2023-07-13T01:07:59;3.72;;;1.80;;
79670;SDS011;69137;50.878;8.050;2023-07-13T01:10:26;4.97;;;1.80;;
79670;SDS011;69137;50.878;8.050;2023-07-13T01:12:52;3.90;;;2.10;;
79670;SDS011;69137;50.878;8.050;2023-07-13T01:20:32;3.78;;;1.42;;
79670;SDS011;69137;50.878;8.050;2023-07-13T01:23:08;4.95;;;1.60;;
79670;SDS011;69137;50.878;8.050;2023-07-13T01:25:35;3.22;;;1.50;;
79670;SDS011;69137;50.878;8.050;2023-07-13T01:28:06;4.65;;;1.77;;
79670;SDS011;69137;50.878;8.050;2023-07-13T01:33:03;2.58;;;1.40;;
79670;SDS011;69137;50.878;8.050;2023-07-13T01:35:29;5.03;;;1.70;;
79670;SDS011;69137;50.878;8.050;2023-07-13T01:37:54;2.67;;;1.40;;
79670;SDS011;69137;50.878;8.050;2023-07-13T01:40:21;3.75;;;1.95;;
79670;SDS011;69137;50.878;8.050;2023-07-13T01:42:46;3.45;;;1.27;;
79670;SDS011;69137;50.878;8.050;2023-07-13T01:45:12;4.95;;;1.67;;
79670;SDS011;69137;50.878;8.050;2023-07-13T01:47:37;3.08;;;1.48;;
79670;SDS011;69137;50.878;8.050;2023-07-13T01:50:02;6.32;;;1.92;;
79670;SDS011;69137;50.878;8.050;2023-07-13T01:52:28;4.20;;;2.05;;
79670;SDS011;69137;50.878;8.050;2023-07-13T01:54:54;6.63;;;2.67;;
79670;SDS011;69137;50.878;8.050;2023-07-13T01:57:19;7.57;;;2.97;;
79670;SDS011;69137;50.878;8.050;2023-07-13T01:59:45;6.43;;;3.10;;
79670;SDS011;69137;50.878;8.050;2023-07-13T02:02:10;7.70;;;2.55;;
79670;SDS011;69137;50.878;8.050;2023-07-13T02:04:36;5.72;;;2.83;;
79670;SDS011;69137;50.878;8.050;2023-07-13T02:07:01;5.63;;;2.72;;
79670;SDS011;69137;50.878;8.050;2023-07-13T02:09:27;7.60;;;2.72;;
79670;SDS011;69137;50.878;8.050;2023-07-13T02:11:52;5.93;;;3.13;;
79670;SDS011;69137;50.878;8.050;2023-07-13T02:14:18;6.63;;;3.15;;
79670;SDS011;69137;50.878;8.050;2023-07-13T02:16:43;6.60;;;2.78;;
79670;SDS011;69137;50.878;8.050;2023-07-13T02:19:09;5.68;;;2.20;;
79670;SDS011;69137;50.878;8.050;2023-07-13T02:21:34;5.25;;;2.35;;
79670;SDS011;69137;50.878;8.050;2023-07-13T02:24:00;2.65;;;1.83;;
79670;SDS011;69137;50.878;8.050;2023-07-13T02:26:26;5.78;;;2.25;;
79670;SDS011;69137;50.878;8.050;2023-07-13T02:28:51;4.53;;;1.90;;
79670;SDS011;69137;50.878;8.050;2023-07-13T02:31:17;7.00;;;2.25;;
79670;SDS011;69137;50.878;8.050;2023-07-13T02:33:43;5.45;;;2.58;;
79670;SDS011;69137;50.878;8.050;2023-07-13T02:36:09;3.15;;;1.77;;
79670;SDS011;69137;50.878;8.050;2023-07-13T02:38:35;4.53;;;2.20;;
79670;SDS011;69137;50.878;8.050;2023-07-13T02:41:02;4.75;;;1.73;;
79670;SDS011;69137;50.878;8.050;2023-07-13T02:43:28;3.33;;;1.83;;
79670;SDS011;69137;50.878;8.050;2023-07-13T02:45:54;5.18;;;2.13;;
79670;SDS011;69137;50.878;8.050;2023-07-13T02:48:20;4.43;;;2.00;;
79670;SDS011;69137;50.878;8.050;2023-07-13T02:50:45;4.60;;;1.83;;
79670;SDS011;69137;50.878;8.050;2023-07-13T02:53:11;3.83;;;1.70;;
79670;SDS011;69137;50.878;8.050;2023-07-13T02:55:36;2.38;;;1.60;;
79670;SDS011;69137;50.878;8.050;2023-07-13T02:58:02;5.30;;;2.00;;
79670;SDS011;69137;50.878;8.050;2023-07-13T03:00:28;3.20;;;1.60;;
79670;SDS011;69137;50.878;8.050;2023-07-13T03:02:53;2.65;;;1.63;;
79670;SDS011;69137;50.878;8.050;2023-07-13T03:05:22;5.38;;;1.73;;
79670;SDS011;69137;50.878;8.050;2023-07-13T03:07:48;4.35;;;2.05;;
79670;SDS011;69137;50.878;8.050;2023-07-13T03:10:13;5.10;;;2.00;;
79670;SDS011;69137;50.878;8.050;2023-07-13T03:12:39;2.70;;;1.40;;
79670;SDS011;69137;50.878;8.050;2023-07-13T03:15:04;6.10;;;1.85;;
79670;SDS011;69137;50.878;8.050;2023-07-13T03:17:30;2.75;;;1.85;;
79670;SDS011;69137;50.878;8.050;2023-07-13T03:19:55;4.47;;;1.60;;
79670;SDS011;69137;50.878;8.050;2023-07-13T03:22:22;4.70;;;2.00;;
79670;SDS011;69137;50.878;8.050;2023-07-13T03:24:47;5.80;;;1.90;;
79670;SDS011;69137;50.878;8.050;2023-07-13T03:27:13;4.38;;;1.60;;
79670;SDS011;69137;50.878;8.050;2023-07-13T03:29:39;2.63;;;1.90;;
79670;SDS011;69137;50.878;8.050;2023-07-13T03:32:05;5.13;;;1.90;;
79670;SDS011;69137;50.878;8.050;2023-07-13T03:34:31;3.17;;;1.90;;
79670;SDS011;69137;50.878;8.050;2023-07-13T03:36:57;6.05;;;2.42;;
79670;SDS011;69137;50.878;8.050;2023-07-13T03:39:23;5.78;;;1.92;;
79670;SDS011;69137;50.878;8.050;2023-07-13T03:41:48;2.53;;;1.70;;
79670;SDS011;69137;50.878;8.050;2023-07-13T03:44:18;4.43;;;1.83;;
79670;SDS011;69137;50.878;8.050;2023-07-13T03:46:43;4.78;;;1.88;;
79670;SDS011;69137;50.878;8.050;2023-07-13T03:49:09;4.95;;;1.92;;
79670;SDS011;69137;50.878;8.050;2023-07-13T03:51:34;5.22;;;2.22;;
79670;SDS011;69137;50.878;8.050;2023-07-13T03:54:00;5.65;;;2.15;;
79670;SDS011;69137;50.878;8.050;2023-07-13T03:56:27;3.55;;;1.73;;
79670;SDS011;69137;50.878;8.050;2023-07-13T03:58:53;4.82;;;2.28;;
79670;SDS011;69137;50.878;8.050;2023-07-13T04:01:18;6.32;;;1.92;;
79670;SDS011;69137;50.878;8.050;2023-07-13T04:03:45;6.68;;;1.80;;
79670;SDS011;69137;50.878;8.050;2023-07-13T04:06:16;6.97;;;2.00;;
79670;SDS011;69137;50.878;8.050;2023-07-13T04:08:49;4.35;;;1.73;;
79670;SDS011;69137;50.878;8.050;2023-07-13T04:11:19;4.28;;;2.08;;
79670;SDS011;69137;50.878;8.050;2023-07-13T04:13:46;6.28;;;1.73;;
79670;SDS011;69137;50.878;8.050;2023-07-13T04:16:13;3.42;;;1.77;;
79670;SDS011;69137;50.878;8.050;2023-07-13T04:18:39;5.55;;;1.70;;
79670;SDS011;69137;50.878;8.050;2023-07-13T04:21:04;8.18;;;1.92;;
79670;SDS011;69137;50.878;8.050;2023-07-13T04:23:30;3.75;;;1.90;;
79670;SDS011;69137;50.878;8.050;2023-07-13T04:25:55;2.85;;;1.73;;
79670;SDS011;69137;50.878;8.050;2023-07-13T04:28:22;4.43;;;1.63;;
79670;SDS011;69137;50.878;8.050;2023-07-13T04:30:49;5.43;;;2.20;;
79670;SDS011;69137;50.878;8.050;2023-07-13T04:33:15;4.57;;;1.90;;
79670;SDS011;69137;50.878;8.050;2023-07-13T04:35:42;3.17;;;1.52;;
79670;SDS011;69137;50.878;8.050;2023-07-13T04:38:08;5.15;;;1.83;;
79670;SDS011;69137;50.878;8.050;2023-07-13T04:40:36;5.10;;;2.13;;
79670;SDS011;69137;50.878;8.050;2023-07-13T04:43:02;5.95;;;1.75;;
79670;SDS011;69137;50.878;8.050;2023-07-13T04:45:27;8.70;;;2.40;;
79670;SDS011;69137;50.878;8.050;2023-07-13T04:47:53;5.78;;;2.72;;
79670;SDS011;69137;50.878;8.050;2023-07-13T04:50:19;11.10;;;3.30;;
79670;SDS011;69137;50.878;8.050;2023-07-13T04:52:48;13.23;;;3.78;;
79670;SDS011;69137;50.878;8.050;2023-07-13T04:55:14;13.18;;;4.53;;
79670;SDS011;69137;50.878;8.050;2023-07-13T04:57:40;13.18;;;4.97;;
79670;SDS011;69137;50.878;8.050;2023-07-13T05:00:05;13.68;;;5.30;;
79670;SDS011;69137;50.878;8.050;2023-07-13T05:02:32;14.10;;;5.25;;
79670;SDS011;69137;50.878;8.050;2023-07-13T05:04:59;9.27;;;4.28;;
79670;SDS011;69137;50.878;8.050;2023-07-13T05:07:25;12.30;;;4.15;;
79670;SDS011;69137;50.878;8.050;2023-07-13T05:09:51;9.30;;;4.43;;
79670;SDS011;69137;50.878;8.050;2023-07-13T05:12:16;14.90;;;4.05;;
79670;SDS011;69137;50.878;8.050;2023-07-13T05:14:42;12.27;;;4.85;;
79670;SDS011;69137;50.878;8.050;2023-07-13T05:17:07;11.05;;;4.05;;
79670;SDS011;69137;50.878;8.050;2023-07-13T05:19:33;10.27;;;4.25;;
79670;SDS011;69137;50.878;8.050;2023-07-13T05:21:58;10.27;;;3.90;;
79670;SDS011;69137;50.878;8.050;2023-07-13T05:24:23;11.52;;;3.88;;
79670;SDS011;69137;50.878;8.050;2023-07-13T05:26:50;7.88;;;3.45;;
79670;SDS011;69137;50.878;8.050;2023-07-13T05:29:16;5.75;;;2.92;;
79670;SDS011;69137;50.878;8.050;2023-07-13T05:31:41;6.07;;;2.60;;
79670;SDS011;69137;50.878;8.050;2023-07-13T05:34:06;6.78;;;2.75;;
79670;SDS011;69137;50.878;8.050;2023-07-13T05:36:32;6.03;;;2.65;;
79670;SDS011;69137;50.878;8.050;2023-07-13T05:38:57;5.07;;;2.70;;
79670;SDS011;69137;50.878;8.050;2023-07-13T05:41:23;8.18;;;3.33;;
79670;SDS011;69137;50.878;8.050;2023-07-13T05:43:48;9.35;;;3.22;;
79670;SDS011;69137;50.878;8.050;2023-07-13T05:46:14;8.13;;;2.72;;
79670;SDS011;69137;50.878;8.050;2023-07-13T05:48:39;7.82;;;2.55;;
79670;SDS011;69137;50.878;8.050;2023-07-13T05:51:04;10.13;;;3.63;;
79670;SDS011;69137;50.878;8.050;2023-07-13T05:53:30;4.80;;;2.45;;
79670;SDS011;69137;50.878;8.050;2023-07-13T05:55:55;4.80;;;2.65;;
79670;SDS011;69137;50.878;8.050;2023-07-13T05:58:21;8.13;;;2.55;;
79670;SDS011;69137;50.878;8.050;2023-07-13T06:00:47;4.18;;;2.70;;
79670;SDS011;69137;50.878;8.050;2023-07-13T06:03:13;5.15;;;2.70;;
79670;SDS011;69137;50.878;8.050;2023-07-13T06:05:39;5.70;;;2.30;;
79670;SDS011;69137;50.878;8.050;2023-07-13T06:08:07;4.63;;;1.70;;
79670;SDS011;69137;50.878;8.050;2023-07-13T06:10:34;3.42;;;2.17;;
79670;SDS011;69137;50.878;8.050;2023-07-13T06:12:59;4.28;;;1.52;;
79670;SDS011;69137;50.878;8.050;2023-07-13T06:15:25;7.55;;;2.42;;
79670;SDS011;69137;50.878;8.050;2023-07-13T06:17:50;4.15;;;1.52;;
79670;SDS011;69137;50.878;8.050;2023-07-13T06:20:16;5.70;;;2.10;;
79670;SDS011;69137;50.878;8.050;2023-07-13T06:22:41;6.28;;;1.73;;
79670;SDS011;69137;50.878;8.050;2023-07-13T06:25:07;5.35;;;2.15;;
79670;SDS011;69137;50.878;8.050;2023-07-13T06:27:33;3.35;;;1.77;;
79670;SDS011;69137;50.878;8.050;2023-07-13T06:29:58;4.43;;;2.03;;
79670;SDS011;69137;50.878;8.050;2023-07-13T06:32:23;3.13;;;1.45;;
79670;SDS011;69137;50.878;8.050;2023-07-13T06:34:49;3.58;;;1.48;;
79670;SDS011;69137;50.878;8.050;2023-07-13T06:37:16;5.63;;;1.60;;
79670;SDS011;69137;50.878;8.050;2023-07-13T06:39:42;2.90;;;1.35;;
79670;SDS011;69137;50.878;8.050;2023-07-13T06:42:07;4.63;;;1.33;;
79670;SDS011;69137;50.878;8.050;2023-07-13T06:44:33;3.30;;;1.60;;
79670;SDS011;69137;50.878;8.050;2023-07-13T06:46:58;4.47;;;1.60;;
79670;SDS011;69137;50.878;8.050;2023-07-13T06:49:24;3.80;;;1.58;;
79670;SDS011;69137;50.878;8.050;2023-07-13T06:51:49;3.20;;;1.50;;
79670;SDS011;69137;50.878;8.050;2023-07-13T06:54:14;3.45;;;2.10;;
79670;SDS011;69137;50.878;8.050;2023-07-13T06:56:40;4.75;;;1.70;;
79670;SDS011;69137;50.878;8.050;2023-07-13T06:59:05;4.70;;;1.38;;
79670;SDS011;69137;50.878;8.050;2023-07-13T07:01:31;2.75;;;1.33;;
79670;SDS011;69137;50.878;8.050;2023-07-13T07:03:56;9.32;;;2.58;;
79670;SDS011;69137;50.878;8.050;2023-07-13T07:06:22;3.72;;;1.63;;
79670;SDS011;69137;50.878;8.050;2023-07-13T07:08:49;3.90;;;1.60;;
79670;SDS011;69137;50.878;8.050;2023-07-13T07:11:19;5.15;;;1.60;;
79670;SDS011;69137;50.878;8.050;2023-07-13T07:13:50;6.18;;;1.92;;
79670;SDS011;69137;50.878;8.050;2023-07-13T07:16:17;7.65;;;1.50;;
79670;SDS011;69137;50.878;8.050;2023-07-13T07:18:43;3.97;;;1.25;;
79670;SDS011;69137;50.878;8.050;2023-07-13T07:21:09;5.40;;;1.40;;
79670;SDS011;69137;50.878;8.050;2023-07-13T07:23:35;5.32;;;1.70;;
79670;SDS011;69137;50.878;8.050;2023-07-13T07:26:00;2.70;;;1.23;;
79670;SDS011;69137;50.878;8.050;2023-07-13T07:28:25;3.88;;;1.40;;
79670;SDS011;69137;50.878;8.050;2023-07-13T07:30:53;2.88;;;1.30;;
79670;SDS011;69137;50.878;8.050;2023-07-13T07:33:20;5.55;;;1.40;;
79670;SDS011;69137;50.878;8.050;2023-07-13T07:35:46;2.55;;;1.50;;
79670;SDS011;69137;50.878;8.050;2023-07-13T07:38:11;2.92;;;1.38;;
79670;SDS011;69137;50.878;8.050;2023-07-13T07:40:40;3.95;;;1.45;;
79670;SDS011;69137;50.878;8.050;2023-07-13T07:43:10;2.95;;;1.40;;
79670;SDS011;69137;50.878;8.050;2023-07-13T07:45:37;4.60;;;1.52;;
79670;SDS011;69137;50.878;8.050;2023-07-13T07:48:04;16.33;;;1.77;;
79670;SDS011;69137;50.878;8.050;2023-07-13T07:50:30;3.78;;;1.33;;
79670;SDS011;69137;50.878;8.050;2023-07-13T07:52:56;6.15;;;1.52;;
79670;SDS011;69137;50.878;8.050;2023-07-13T07:55:21;2.20;;;1.40;;
79670;SDS011;69137;50.878;8.050;2023-07-13T07:57:48;3.10;;;1.35;;
79670;SDS011;69137;50.878;8.050;2023-07-13T08:00:14;3.72;;;1.60;;
79670;SDS011;69137;50.878;8.050;2023-07-13T08:02:40;2.70;;;1.27;;
79670;SDS011;69137;50.878;8.050;2023-07-13T08:05:06;2.40;;;1.38;;
79670;SDS011;69137;50.878;8.050;2023-07-13T08:07:33;3.70;;;0.95;;
79670;SDS011;69137;50.878;8.050;2023-07-13T08:09:59;3.58;;;1.17;;
79670;SDS011;69137;50.878;8.050;2023-07-13T08:12:24;3.60;;;1.30;;
79670;SDS011;69137;50.878;8.050;2023-07-13T08:14:50;5.80;;;1.33;;
79670;SDS011;69137;50.878;8.050;2023-07-13T08:17:22;5.65;;;1.35;;
79670;SDS011;69137;50.878;8.050;2023-07-13T08:19:47;4.20;;;1.25;;
79670;SDS011;69137;50.878;8.050;2023-07-13T08:22:12;7.85;;;1.40;;
79670;SDS011;69137;50.878;8.050;2023-07-13T08:24:38;4.32;;;1.63;;
79670;SDS011;69137;50.878;8.050;2023-07-13T08:27:03;7.35;;;1.95;;
79670;SDS011;69137;50.878;8.050;2023-07-13T08:29:29;3.75;;;1.88;;
79670;SDS011;69137;50.878;8.050;2023-07-13T08:31:57;3.88;;;1.42;;
79670;SDS011;69137;50.878;8.050;2023-07-13T08:34:22;3.13;;;1.20;;
79670;SDS011;69137;50.878;8.050;2023-07-13T08:36:48;3.58;;;1.35;;
79670;SDS011;69137;50.878;8.050;2023-07-13T08:39:13;3.45;;;1.30;;
79670;SDS011;69137;50.878;8.050;2023-07-13T08:41:39;2.90;;;1.33;;
79670;SDS011;69137;50.878;8.050;2023-07-13T08:44:05;2.30;;;1.00;;
79670;SDS011;69137;50.878;8.050;2023-07-13T08:46:41;6.30;;;1.70;;
79670;SDS011;69137;50.878;8.050;2023-07-13T08:49:11;2.40;;;2.00;;
79670;SDS011;69137;50.878;8.050;2023-07-13T08:51:47;2.58;;;1.20;;
79670;SDS011;69137;50.878;8.050;2023-07-13T08:54:34;4.90;;;1.40;;
79670;SDS011;69137;50.878;8.050;2023-07-13T08:57:09;3.90;;;1.10;;
79670;SDS011;69137;50.878;8.050;2023-07-13T08:59:38;3.38;;;1.50;;
79670;SDS011;69137;50.878;8.050;2023-07-13T09:02:20;3.80;;;1.48;;
79670;SDS011;69137;50.878;8.050;2023-07-13T09:17:57;5.85;;;1.73;;
79670;SDS011;69137;50.878;8.050;2023-07-13T09:21:02;3.50;;;1.80;;
79670;SDS011;69137;50.878;8.050;2023-07-13T09:23:30;2.60;;;1.33;;
79670;SDS011;69137;50.878;8.050;2023-07-13T09:26:04;2.72;;;1.00;;
79670;SDS011;69137;50.878;8.050;2023-07-13T09:28:42;3.20;;;1.50;;
79670;SDS011;69137;50.878;8.050;2023-07-13T09:33:51;3.58;;;1.27;;
79670;SDS011;69137;50.878;8.050;2023-07-13T09:36:18;3.55;;;1.55;;
79670;SDS011;69137;50.878;8.050;2023-07-13T09:41:36;4.00;;;1.40;;
79670;SDS011;69137;50.878;8.050;2023-07-13T09:44:12;3.97;;;1.50;;
79670;SDS011;69137;50.878;8.050;2023-07-13T09:46:43;2.70;;;1.52;;
79670;SDS011;69137;50.878;8.050;2023-07-13T09:49:11;2.65;;;1.35;;
79670;SDS011;69137;50.878;8.050;2023-07-13T09:51:43;3.25;;;1.35;;
79670;SDS011;69137;50.878;8.050;2023-07-13T09:54:22;4.45;;;1.70;;
79670;SDS011;69137;50.878;8.050;2023-07-13T09:56:56;2.80;;;1.20;;
79670;SDS011;69137;50.878;8.050;2023-07-13T09:59:24;2.05;;;1.23;;
79670;SDS011;69137;50.878;8.050;2023-07-13T10:01:54;4.07;;;1.45;;
79670;SDS011;69137;50.878;8.050;2023-07-13T10:04:26;3.47;;;1.80;;
79670;SDS011;69137;50.878;8.050;2023-07-13T10:07:07;4.25;;;1.70;;
79670;SDS011;69137;50.878;8.050;2023-07-13T10:09:34;2.03;;;1.20;;
79670;SDS011;69137;50.878;8.050;2023-07-13T10:12:00;4.88;;;2.42;;
79670;SDS011;69137;50.878;8.050;2023-07-13T10:14:26;2.40;;;1.27;;
79670;SDS011;69137;50.878;8.050;2023-07-13T10:16:59;3.65;;;1.15;;
79670;SDS011;69137;50.878;8.050;2023-07-13T10:19:29;3.83;;;1.35;;
79670;SDS011;69137;50.878;8.050;2023-07-13T10:22:02;4.80;;;1.40;;
79670;SDS011;69137;50.878;8.050;2023-07-13T10:24:38;3.47;;;1.50;;
79670;SDS011;69137;50.878;8.050;2023-07-13T10:27:17;4.38;;;1.20;;
79670;SDS011;69137;50.878;8.050;2023-07-13T10:32:19;4.25;;;1.27;;
79670;SDS011;69137;50.878;8.050;2023-07-13T10:34:48;2.88;;;1.40;;
79670;SDS011;69137;50.878;8.050;2023-07-13T10:39:47;1.63;;;1.05;;
79670;SDS011;69137;50.878;8.050;2023-07-13T10:42:18;2.13;;;1.20;;
79670;SDS011;69137;50.878;8.050;2023-07-13T10:44:56;2.45;;;1.30;;
79670;SDS011;69137;50.878;8.050;2023-07-13T10:47:21;4.40;;;1.27;;
79670;SDS011;69137;50.878;8.050;2023-07-13T10:49:47;2.22;;;1.38;;
79670;SDS011;69137;50.878;8.050;2023-07-13T10:55:11;3.22;;;1.10;;
79670;SDS011;69137;50.878;8.050;2023-07-13T10:58:18;3.75;;;1.20;;
79670;SDS011;69137;50.878;8.050;2023-07-13T11:01:26;2.60;;;1.40;;
79670;SDS011;69137;50.878;8.050;2023-07-13T11:03:37;2.90;;;1.05;;
79670;SDS011;69137;50.878;8.050;2023-07-13T11:06:33;3.45;;;1.20;;
79670;SDS011;69137;50.878;8.050;2023-07-13T11:22:43;4.90;;;1.13;;
79670;SDS011;69137;50.878;8.050;2023-07-13T11:28:29;2.20;;;1.10;;
79670;SDS011;69137;50.878;8.050;2023-07-13T11:36:05;2.92;;;1.10;;
79670;SDS011;69137;50.878;8.050;2023-07-13T11:41:03;2.72;;;1.42;;
79670;SDS011;69137;50.878;8.050;2023-07-13T11:43:32;4.15;;;1.50;;
79670;SDS011;69137;50.878;8.050;2023-07-13T11:46:11;3.80;;;1.30;;
79670;SDS011;69137;50.878;8.050;2023-07-13T11:48:50;2.65;;;1.00;;
79670;SDS011;69137;50.878;8.050;2023-07-13T11:51:23;3.25;;;1.10;;
79670;SDS011;69137;50.878;8.050;2023-07-13T11:53:53;2.45;;;1.10;;
79670;SDS011;69137;50.878;8.050;2023-07-13T11:56:22;2.78;;;1.30;;
79670;SDS011;69137;50.878;8.050;2023-07-13T11:58:53;3.35;;;1.30;;
79670;SDS011;69137;50.878;8.050;2023-07-13T12:01:30;5.07;;;1.40;;
79670;SDS011;69137;50.878;8.050;2023-07-13T12:03:57;2.75;;;1.30;;
79670;SDS011;69137;50.878;8.050;2023-07-13T12:06:30;5.88;;;1.33;;
79670;SDS011;69137;50.878;8.050;2023-07-13T12:08:58;1.33;;;1.08;;
79670;SDS011;69137;50.878;8.050;2023-07-13T12:11:25;3.17;;;1.60;;
79670;SDS011;69137;50.878;8.050;2023-07-13T12:13:51;2.03;;;1.33;;
79670;SDS011;69137;50.878;8.050;2023-07-13T12:16:28;7.50;;;1.90;;
79670;SDS011;69137;50.878;8.050;2023-07-13T12:18:55;4.80;;;1.15;;
79670;SDS011;69137;50.878;8.050;2023-07-13T12:21:22;3.55;;;1.33;;
79670;SDS011;69137;50.878;8.050;2023-07-13T12:23:54;3.17;;;1.35;;
79670;SDS011;69137;50.878;8.050;2023-07-13T12:26:20;4.68;;;1.40;;
79670;SDS011;69137;50.878;8.050;2023-07-13T12:28:51;2.33;;;1.42;;
79670;SDS011;69137;50.878;8.050;2023-07-13T12:31:37;1.85;;;1.10;;
79670;SDS011;69137;50.878;8.050;2023-07-13T12:36:37;3.50;;;1.50;;
79670;SDS011;69137;50.878;8.050;2023-07-13T12:39:15;3.47;;;1.20;;
79670;SDS011;69137;50.878;8.050;2023-07-13T12:41:43;3.25;;;1.27;;
79670;SDS011;69137;50.878;8.050;2023-07-13T12:44:23;3.83;;;1.50;;
79670;SDS011;69137;50.878;8.050;2023-07-13T12:46:57;3.75;;;1.55;;
79670;SDS011;69137;50.878;8.050;2023-07-13T12:49:30;5.25;;;1.48;;
79670;SDS011;69137;50.878;8.050;2023-07-13T12:52:00;3.97;;;1.60;;
79670;SDS011;69137;50.878;8.050;2023-07-13T12:56:54;6.03;;;1.83;;
79670;SDS011;69137;50.878;8.050;2023-07-13T12:59:23;3.72;;;1.52;;
79670;SDS011;69137;50.878;8.050;2023-07-13T13:01:53;6.68;;;2.00;;
79670;SDS011;69137;50.878;8.050;2023-07-13T13:04:19;3.92;;;1.60;;
79670;SDS011;69137;50.878;8.050;2023-07-13T13:06:46;7.38;;;1.90;;
79670;SDS011;69137;50.878;8.050;2023-07-13T13:09:14;2.25;;;1.25;;
79670;SDS011;69137;50.878;8.050;2023-07-13T13:11:41;6.30;;;1.92;;
79670;SDS011;69137;50.878;8.050;2023-07-13T13:14:07;4.93;;;1.40;;
79670;SDS011;69137;50.878;8.050;2023-07-13T13:16:47;3.03;;;1.40;;
79670;SDS011;69137;50.878;8.050;2023-07-13T13:19:26;3.15;;;1.35;;
79670;SDS011;69137;50.878;8.050;2023-07-13T13:21:53;4.35;;;1.50;;
79670;SDS011;69137;50.878;8.050;2023-07-13T13:24:22;4.78;;;1.60;;
79670;SDS011;69137;50.878;8.050;2023-07-13T13:26:50;3.25;;;1.17;;
79670;SDS011;69137;50.878;8.050;2023-07-13T13:29:20;2.47;;;1.30;;
79670;SDS011;69137;50.878;8.050;2023-07-13T13:31:51;6.38;;;1.42;;
79670;SDS011;69137;50.878;8.050;2023-07-13T13:34:18;6.20;;;2.00;;
79670;SDS011;69137;50.878;8.050;2023-07-13T13:36:44;6.57;;;1.70;;
79670;SDS011;69137;50.878;8.050;2023-07-13T13:41:55;5.18;;;1.70;;
79670;SDS011;69137;50.878;8.050;2023-07-13T13:44:21;6.40;;;1.60;;
79670;SDS011;69137;50.878;8.050;2023-07-13T13:49:22;3.13;;;1.67;;
79670;SDS011;69137;50.878;8.050;2023-07-13T13:51:49;4.35;;;1.83;;
79670;SDS011;69137;50.878;8.050;2023-07-13T13:54:16;3.58;;;1.63;;
79670;SDS011;69137;50.878;8.050;2023-07-13T13:56:45;4.07;;;1.67;;
79670;SDS011;69137;50.878;8.050;2023-07-13T13:59:13;4.05;;;1.60;;
79670;SDS011;69137;50.878;8.050;2023-07-13T14:01:42;4.28;;;1.45;;
79670;SDS011;69137;50.878;8.050;2023-07-13T14:04:13;4.07;;;1.60;;
79670;SDS011;69137;50.878;8.050;2023-07-13T14:06:42;6.95;;;1.67;;
79670;SDS011;69137;50.878;8.050;2023-07-13T14:09:09;8.50;;;2.30;;
79670;SDS011;69137;50.878;8.050;2023-07-13T14:11:36;3.05;;;1.33;;
79670;SDS011;69137;50.878;8.050;2023-07-13T14:14:02;2.92;;;1.58;;
79670;SDS011;69137;50.878;8.050;2023-07-13T14:16:30;3.22;;;1.30;;
79670;SDS011;69137;50.878;8.050;2023-07-13T14:18:57;6.25;;;2.35;;
79670;SDS011;69137;50.878;8.050;2023-07-13T14:21:25;2.28;;;1.30;;
79670;SDS011;69137;50.878;8.050;2023-07-13T14:23:52;5.65;;;1.80;;
79670;SDS011;69137;50.878;8.050;2023-07-13T14:26:19;6.95;;;1.80;;
79670;SDS011;69137;50.878;8.050;2023-07-13T14:28:47;4.35;;;1.67;;
79670;SDS011;69137;50.878;8.050;2023-07-13T14:31:15;6.28;;;1.70;;
79670;SDS011;69137;50.878;8.050;2023-07-13T14:33:42;5.45;;;1.40;;
79670;SDS011;69137;50.878;8.050;2023-07-13T14:38:39;2.15;;;1.25;;
79670;SDS011;69137;50.878;8.050;2023-07-13T14:41:07;3.28;;;1.48;;
79670;SDS011;69137;50.878;8.050;2023-07-13T14:43:33;3.88;;;1.90;;
79670;SDS011;69137;50.878;8.050;2023-07-13T14:45:58;7.07;;;2.75;;
79670;SDS011;69137;50.878;8.050;2023-07-13T14:48:24;3.53;;;1.83;;
79670;SDS011;69137;50.878;8.050;2023-07-13T14:50:53;3.47;;;1.50;;
79670;SDS011;69137;50.878;8.050;2023-07-13T14:53:20;4.32;;;1.52;;
79670;SDS011;69137;50.878;8.050;2023-07-13T14:55:45;7.15;;;1.83;;
79670;SDS011;69137;50.878;8.050;2023-07-13T14:58:11;4.05;;;1.48;;
79670;SDS011;69137;50.878;8.050;2023-07-13T15:00:38;3.60;;;1.38;;
79670;SDS011;69137;50.878;8.050;2023-07-13T15:03:05;2.67;;;1.30;;
79670;SDS011;69137;50.878;8.050;2023-07-13T15:05:37;3.53;;;1.65;;
79670;SDS011;69137;50.878;8.050;2023-07-13T15:08:05;4.53;;;1.35;;
79670;SDS011;69137;50.878;8.050;2023-07-13T15:10:31;2.42;;;1.33;;
79670;SDS011;69137;50.878;8.050;2023-07-13T15:13:11;3.67;;;1.40;;
79670;SDS011;69137;50.878;8.050;2023-07-13T15:15:43;2.22;;;1.40;;
79670;SDS011;69137;50.878;8.050;2023-07-13T15:18:11;3.38;;;1.80;;
79670;SDS011;69137;50.878;8.050;2023-07-13T15:20:38;2.22;;;1.20;;
79670;SDS011;69137;50.878;8.050;2023-07-13T15:23:03;4.65;;;1.30;;
79670;SDS011;69137;50.878;8.050;2023-07-13T15:25:31;3.72;;;1.45;;
79670;SDS011;69137;50.878;8.050;2023-07-13T15:27:58;2.65;;;1.30;;
79670;SDS011;69137;50.878;8.050;2023-07-13T15:30:25;3.15;;;1.45;;
79670;SDS011;69137;50.878;8.050;2023-07-13T15:32:54;2.72;;;1.30;;
79670;SDS011;69137;50.878;8.050;2023-07-13T15:35:24;2.35;;;1.30;;
79670;SDS011;69137;50.878;8.050;2023-07-13T15:37:51;2.70;;;1.10;;
79670;SDS011;69137;50.878;8.050;2023-07-13T15:40:17;4.43;;;1.58;;
79670;SDS011;69137;50.878;8.050;2023-07-13T15:42:46;3.75;;;1.50;;
79670;SDS011;69137;50.878;8.050;2023-07-13T15:47:49;2.05;;;1.20;;
79670;SDS011;69137;50.878;8.050;2023-07-13T15:50:20;6.88;;;1.63;;
79670;SDS011;69137;50.878;8.050;2023-07-13T15:52:48;2.50;;;1.30;;
79670;SDS011;69137;50.878;8.050;2023-07-13T15:55:16;6.78;;;1.48;;
79670;SDS011;69137;50.878;8.050;2023-07-13T15:57:44;3.47;;;1.23;;
79670;SDS011;69137;50.878;8.050;2023-07-13T16:00:23;3.03;;;1.35;;
79670;SDS011;69137;50.878;8.050;2023-07-13T16:02:52;2.25;;;1.38;;
79670;SDS011;69137;50.878;8.050;2023-07-13T16:05:19;2.47;;;1.20;;
79670;SDS011;69137;50.878;8.050;2023-07-13T16:07:47;3.53;;;1.85;;
79670;SDS011;69137;50.878;8.050;2023-07-13T16:10:19;5.90;;;1.90;;
79670;SDS011;69137;50.878;8.050;2023-07-13T16:12:46;6.53;;;1.67;;